sensor_id;sensor_type;location;lat;lon;timestamp;temperature;humidity
7476;DHT22;3779;49.216;8.650;2023-04-01T00:34:44;19.80;45.60
7476;DHT22;3779;49.216;8.650;2023-04-01T01:11:00;19.80;45.90
7476;DHT22;3779;49.216;8.650;2023-04-01T01:14:12;19.80;45.40
7476;DHT22;3779;49.216;8.650;2023-04-01T01:38:19;19.90;45.50
7476;DHT22;3779;49.216;8.650;2023-04-01T01:41:16;19.90;45.50
7476;DHT22;3779;49.216;8.650;2023-04-01T01:44:06;19.90;45.70
7476;DHT22;3779;49.216;8.650;2023-04-01T01:46:53;19.90;44.90
7476;DHT22;3779;49.216;8.650;2023-04-01T01:49:39;19.90;45.40
7476;DHT22;3779;49.216;8.650;2023-04-01T01:52:27;19.90;45.10
7476;DHT22;3779;49.216;8.650;2023-04-01T01:55:53;19.70;45.00
7476;DHT22;3779;49.216;8.650;2023-04-01T01:59:04;19.60;45.90
7476;DHT22;3779;49.216;8.650;2023-04-01T02:01:55;19.70;45.70
7476;DHT22;3779;49.216;8.650;2023-04-01T02:04:43;19.80;45.40
7476;DHT22;3779;49.216;8.650;2023-04-01T02:07:33;19.80;44.80
7476;DHT22;3779;49.216;8.650;2023-04-01T02:10:23;19.90;44.80
7476;DHT22;3779;49.216;8.650;2023-04-01T02:13:28;19.90;45.20
7476;DHT22;3779;49.216;8.650;2023-04-01T02:16:20;19.80;45.20
7476;DHT22;3779;49.216;8.650;2023-04-01T02:19:10;19.80;44.90
7476;DHT22;3779;49.216;8.650;2023-04-01T02:21:59;19.90;45.10
7476;DHT22;3779;49.216;8.650;2023-04-01T02:24:48;19.90;44.70
7476;DHT22;3779;49.216;8.650;2023-04-01T02:27:34;19.80;44.60
7476;DHT22;3779;49.216;8.650;2023-04-01T02:30:21;20.00;45.40
7476;DHT22;3779;49.216;8.650;2023-04-01T02:33:08;19.80;45.00
7476;DHT22;3779;49.216;8.650;2023-04-01T02:35:54;19.80;45.40
7476;DHT22;3779;49.216;8.650;2023-04-01T02:38:42;19.80;45.10
7476;DHT22;3779;49.216;8.650;2023-04-01T02:41:28;19.80;45.20
7476;DHT22;3779;49.216;8.650;2023-04-01T02:44:15;19.80;45.50
7476;DHT22;3779;49.216;8.650;2023-04-01T02:47:03;19.90;45.50
7476;DHT22;3779;49.216;8.650;2023-04-01T02:49:49;19.90;44.90
7476;DHT22;3779;49.216;8.650;2023-04-01T02:52:35;19.90;44.80
7476;DHT22;3779;49.216;8.650;2023-04-01T02:55:21;19.80;44.50
7476;DHT22;3779;49.216;8.650;2023-04-01T02:58:07;19.80;45.10
7476;DHT22;3779;49.216;8.650;2023-04-01T03:00:54;19.80;44.50
7476;DHT22;3779;49.216;8.650;2023-04-01T03:03:40;19.80;44.20
7476;DHT22;3779;49.216;8.650;2023-04-01T03:06:26;19.80;44.30
7476;DHT22;3779;49.216;8.650;2023-04-01T03:09:12;19.80;43.90
7476;DHT22;3779;49.216;8.650;2023-04-01T03:11:59;19.80;43.60
7476;DHT22;3779;49.216;8.650;2023-04-01T03:14:45;19.80;43.90
7476;DHT22;3779;49.216;8.650;2023-04-01T03:17:31;19.60;43.30
7476;DHT22;3779;49.216;8.650;2023-04-01T03:20:18;19.60;44.80
7476;DHT22;3779;49.216;8.650;2023-04-01T03:23:04;19.70;44.90
7476;DHT22;3779;49.216;8.650;2023-04-01T03:25:52;19.80;44.20
7476;DHT22;3779;49.216;8.650;2023-04-01T03:28:38;19.80;44.20
7476;DHT22;3779;49.216;8.650;2023-04-01T03:31:24;19.80;43.60
7476;DHT22;3779;49.216;8.650;2023-04-01T03:34:14;19.80;43.40
7476;DHT22;3779;49.216;8.650;2023-04-01T03:37:01;19.80;43.30
7476;DHT22;3779;49.216;8.650;2023-04-01T03:39:47;19.70;43.50
7476;DHT22;3779;49.216;8.650;2023-04-01T03:42:33;19.70;44.20
7476;DHT22;3779;49.216;8.650;2023-04-01T03:45:20;19.70;44.20
7476;DHT22;3779;49.216;8.650;2023-04-01T03:48:07;19.80;43.90
7476;DHT22;3779;49.216;8.650;2023-04-01T03:50:53;19.80;43.80
7476;DHT22;3779;49.216;8.650;2023-04-01T03:53:39;19.80;43.80
7476;DHT22;3779;49.216;8.650;2023-04-01T03:56:26;19.80;44.00
7476;DHT22;3779;49.216;8.650;2023-04-01T03:59:12;19.80;44.30
7476;DHT22;3779;49.216;8.650;2023-04-01T04:01:58;19.80;44.20
7476;DHT22;3779;49.216;8.650;2023-04-01T04:04:45;19.80;44.30
7476;DHT22;3779;49.216;8.650;2023-04-01T04:07:34;19.90;45.00
7476;DHT22;3779;49.216;8.650;2023-04-01T04:10:26;19.80;44.50
7476;DHT22;3779;49.216;8.650;2023-04-01T04:13:12;19.80;44.70
7476;DHT22;3779;49.216;8.650;2023-04-01T04:16:05;19.80;44.80
7476;DHT22;3779;49.216;8.650;2023-04-01T04:18:52;19.80;44.90
7476;DHT22;3779;49.216;8.650;2023-04-01T04:21:39;19.90;45.10
7476;DHT22;3779;49.216;8.650;2023-04-01T04:24:26;19.90;45.80
7476;DHT22;3779;49.216;8.650;2023-04-01T04:27:21;19.80;45.50
7476;DHT22;3779;49.216;8.650;2023-04-01T04:30:16;19.80;45.50
7476;DHT22;3779;49.216;8.650;2023-04-01T04:33:02;19.80;45.60
7476;DHT22;3779;49.216;8.650;2023-04-01T04:35:49;19.80;45.40
7476;DHT22;3779;49.216;8.650;2023-04-01T04:38:40;19.80;45.60
7476;DHT22;3779;49.216;8.650;2023-04-01T04:41:26;19.80;45.70
7476;DHT22;3779;49.216;8.650;2023-04-01T04:44:12;19.80;45.60
7476;DHT22;3779;49.216;8.650;2023-04-01T04:46:59;19.80;45.50
7476;DHT22;3779;49.216;8.650;2023-04-01T04:49:45;19.80;45.20
7476;DHT22;3779;49.216;8.650;2023-04-01T04:52:32;19.80;45.50
7476;DHT22;3779;49.216;8.650;2023-04-01T04:55:18;19.80;45.10
7476;DHT22;3779;49.216;8.650;2023-04-01T04:58:08;19.80;45.50
7476;DHT22;3779;49.216;8.650;2023-04-01T05:00:54;19.80;45.60
7476;DHT22;3779;49.216;8.650;2023-04-01T05:03:46;19.80;45.30
7476;DHT22;3779;49.216;8.650;2023-04-01T05:06:32;19.80;45.30
7476;DHT22;3779;49.216;8.650;2023-04-01T05:09:18;19.80;45.00
7476;DHT22;3779;49.216;8.650;2023-04-01T05:12:05;19.80;44.80
7476;DHT22;3779;49.216;8.650;2023-04-01T05:15:11;19.80;44.30
7476;DHT22;3779;49.216;8.650;2023-04-01T05:17:58;19.80;44.70
7476;DHT22;3779;49.216;8.650;2023-04-01T05:20:49;19.80;44.30
7476;DHT22;3779;49.216;8.650;2023-04-01T05:23:36;19.80;44.70
7476;DHT22;3779;49.216;8.650;2023-04-01T05:26:23;19.80;44.80
7476;DHT22;3779;49.216;8.650;2023-04-01T05:29:09;19.80;44.50
7476;DHT22;3779;49.216;8.650;2023-04-01T05:31:56;20.00;44.50
7476;DHT22;3779;49.216;8.650;2023-04-01T05:34:42;19.80;44.70
7476;DHT22;3779;49.216;8.650;2023-04-01T05:37:28;19.80;44.60
7476;DHT22;3779;49.216;8.650;2023-04-01T05:40:14;19.80;44.40
7476;DHT22;3779;49.216;8.650;2023-04-01T05:43:00;19.80;44.70
7476;DHT22;3779;49.216;8.650;2023-04-01T05:45:48;19.80;44.40
7476;DHT22;3779;49.216;8.650;2023-04-01T05:48:54;19.80;45.00
7476;DHT22;3779;49.216;8.650;2023-04-01T05:51:42;19.70;44.70
7476;DHT22;3779;49.216;8.650;2023-04-01T05:54:29;19.70;44.90
7476;DHT22;3779;49.216;8.650;2023-04-01T05:57:15;19.90;45.60
7476;DHT22;3779;49.216;8.650;2023-04-01T06:00:01;20.00;44.30
7476;DHT22;3779;49.216;8.650;2023-04-01T06:02:59;19.80;44.40
7476;DHT22;3779;49.216;8.650;2023-04-01T06:05:46;19.80;44.80
7476;DHT22;3779;49.216;8.650;2023-04-01T06:08:32;19.80;45.10
7476;DHT22;3779;49.216;8.650;2023-04-01T06:14:32;19.80;44.90
7476;DHT22;3779;49.216;8.650;2023-04-01T06:20:58;19.80;44.40
7476;DHT22;3779;49.216;8.650;2023-04-01T06:24:02;19.80;44.50
7476;DHT22;3779;49.216;8.650;2023-04-01T06:56:32;19.50;46.70
7476;DHT22;3779;49.216;8.650;2023-04-01T06:59:34;19.60;46.50
7476;DHT22;3779;49.216;8.650;2023-04-01T07:05:19;19.60;46.60
7476;DHT22;3779;49.216;8.650;2023-04-01T07:08:09;19.70;46.50
7476;DHT22;3779;49.216;8.650;2023-04-01T07:11:03;19.70;46.60
7476;DHT22;3779;49.216;8.650;2023-04-01T07:14:25;19.70;46.50
7476;DHT22;3779;49.216;8.650;2023-04-01T07:17:40;19.80;46.00
7476;DHT22;3779;49.216;8.650;2023-04-01T07:20:31;19.50;46.80
7476;DHT22;3779;49.216;8.650;2023-04-01T07:23:28;19.60;46.40
7476;DHT22;3779;49.216;8.650;2023-04-01T07:26:27;19.60;46.70
7476;DHT22;3779;49.216;8.650;2023-04-01T07:29:14;19.60;46.80
7476;DHT22;3779;49.216;8.650;2023-04-01T07:35:22;19.60;46.70
7476;DHT22;3779;49.216;8.650;2023-04-01T07:41:37;19.70;46.50
7476;DHT22;3779;49.216;8.650;2023-04-01T07:44:49;19.80;46.50
7476;DHT22;3779;49.216;8.650;2023-04-01T07:51:22;19.80;46.80
7476;DHT22;3779;49.216;8.650;2023-04-01T07:57:19;19.80;47.00
7476;DHT22;3779;49.216;8.650;2023-04-01T08:00:20;19.80;47.60
7476;DHT22;3779;49.216;8.650;2023-04-01T08:03:24;19.70;47.90
7476;DHT22;3779;49.216;8.650;2023-04-01T08:06:37;19.70;48.10
7476;DHT22;3779;49.216;8.650;2023-04-01T08:23:25;19.50;48.90
7476;DHT22;3779;49.216;8.650;2023-04-01T08:26:44;19.60;48.60
7476;DHT22;3779;49.216;8.650;2023-04-01T08:29:41;19.70;48.70
7476;DHT22;3779;49.216;8.650;2023-04-01T08:32:36;19.80;48.30
7476;DHT22;3779;49.216;8.650;2023-04-01T08:35:54;19.80;48.30
7476;DHT22;3779;49.216;8.650;2023-04-01T08:38:55;19.80;48.50
7476;DHT22;3779;49.216;8.650;2023-04-01T08:45:14;19.60;49.00
7476;DHT22;3779;49.216;8.650;2023-04-01T08:48:12;19.60;49.00
7476;DHT22;3779;49.216;8.650;2023-04-01T09:00:54;19.70;49.20
7476;DHT22;3779;49.216;8.650;2023-04-01T09:33:59;19.80;48.50
7476;DHT22;3779;49.216;8.650;2023-04-01T09:53:14;19.80;48.20
7476;DHT22;3779;49.216;8.650;2023-04-01T09:56:23;19.80;48.30
7476;DHT22;3779;49.216;8.650;2023-04-01T10:03:23;19.80;48.80
7476;DHT22;3779;49.216;8.650;2023-04-01T10:09:43;19.80;48.30
